Time;durP1;ratioP1;P1;durP2;ratioP2;P2;SDS_P1;SDS_P2;PMS_P1;PMS_P2;Temp;Humidity;BMP_temperature;BMP_pressure;BME280_temperature;BME280_humidity;BME280_pressure;Samples;Min_cycle;Max_cycle;Signal;HPM_P1;HPM_P2
2022/06/28 00:00:19;;;;;;;4.13;3.77;;;;;;;25.55;64.29;99528.59;4993918;28;20191;-72
2022/06/28 00:02:46;;;;;;;3.73;3.43;;;;;;;25.50;65.42;99534.91;4994482;28;20642;-72
2022/06/28 00:05:13;;;;;;;3.90;3.60;;;;;;;25.53;64.82;99528.06;4994701;28;20190;-72
2022/06/28 00:07:40;;;;;;;4.17;3.73;;;;;;;25.46;64.95;99533.88;4993498;28;20545;-72
2022/06/28 00:10:09;;;;;;;5.03;3.53;;;;;;;25.41;65.15;99530.41;4993926;28;20199;-72
2022/06/28 00:12:37;;;;;;;5.27;3.90;;;;;;;25.40;64.83;99531.50;4993869;28;20222;-72
2022/06/28 00:17:52;;;;;;;5.10;3.60;;;;;;;25.21;64.73;99533.34;4994523;28;20362;-72
2022/06/28 00:20:19;;;;;;;3.70;3.50;;;;;;;25.08;64.21;99532.94;4994234;28;20257;-72
2022/06/28 00:22:45;;;;;;;4.10;3.80;;;;;;;25.02;64.57;99538.72;4993798;28;20671;-72
2022/06/28 00:25:12;;;;;;;3.93;3.73;;;;;;;24.98;64.83;99534.16;4993663;28;20675;-72
2022/06/28 00:27:40;;;;;;;4.40;4.20;;;;;;;24.91;65.88;99527.16;4993723;28;20193;-72
2022/06/28 00:30:09;;;;;;;3.87;3.50;;;;;;;25.02;65.63;99527.84;4993600;28;20745;-72
2022/06/28 00:32:36;;;;;;;8.93;4.10;;;;;;;25.10;64.29;99520.97;4993486;28;20603;-71
2022/06/28 00:35:04;;;;;;;4.53;3.93;;;;;;;25.14;64.90;99519.31;4993359;28;20634;-72
2022/06/28 00:37:31;;;;;;;4.10;3.73;;;;;;;25.17;65.52;99521.41;4993294;28;20253;-72
2022/06/28 00:39:58;;;;;;;6.97;4.63;;;;;;;25.25;64.39;99528.94;4993622;28;20198;-71
2022/06/28 00:42:25;;;;;;;3.90;3.70;;;;;;;25.29;64.52;99524.56;4993419;28;20194;-72
2022/06/28 00:44:52;;;;;;;4.53;4.23;;;;;;;25.36;64.40;99522.31;4993914;28;20199;-72
2022/06/28 00:47:20;;;;;;;4.43;4.03;;;;;;;25.37;64.32;99529.38;4993356;28;20194;-72
2022/06/28 00:49:47;;;;;;;3.90;3.70;;;;;;;25.42;64.39;99530.13;4993208;28;20204;-72
2022/06/28 00:52:14;;;;;;;4.53;4.00;;;;;;;25.43;63.03;99533.66;4993484;28;20222;-72
2022/06/28 00:54:41;;;;;;;4.57;4.00;;;;;;;25.56;63.26;99535.66;4994288;28;20195;-72
2022/06/28 00:57:09;;;;;;;4.30;3.90;;;;;;;25.65;62.88;99531.19;4993149;28;20198;-72
2022/06/28 00:59:35;;;;;;;4.23;3.93;;;;;;;25.74;61.73;99515.81;4993546;28;20619;-72
2022/06/28 01:02:02;;;;;;;4.63;4.23;;;;;;;25.67;62.22;99513.44;4993383;28;20257;-72
2022/06/28 01:04:31;;;;;;;8.03;4.00;;;;;;;25.56;63.33;99519.34;4993355;28;20281;-71
2022/06/28 01:06:57;;;;;;;4.00;3.70;;;;;;;25.54;63.73;99518.81;4993017;28;20195;-72
2022/06/28 01:09:24;;;;;;;4.47;3.97;;;;;;;25.54;62.18;99526.97;4993494;28;20563;-71
2022/06/28 01:11:51;;;;;;;3.70;3.50;;;;;;;25.58;63.00;99525.28;4992932;28;20195;-71
2022/06/28 01:14:18;;;;;;;4.80;4.40;;;;;;;25.52;62.95;99518.28;4993609;28;20238;-71
2022/06/28 01:16:47;;;;;;;3.97;3.67;;;;;;;25.46;63.41;99511.28;4993671;28;20202;-71
2022/06/28 01:19:16;;;;;;;6.77;4.90;;;;;;;25.38;63.15;99515.47;4992514;28;20659;-71
2022/06/28 01:21:49;;;;;;;5.07;4.67;;;;;;;25.13;63.81;99512.22;4993187;28;20648;-71
2022/06/28 01:24:17;;;;;;;5.03;4.13;;;;;;;24.95;65.15;99521.97;4993115;28;20230;-71
2022/06/28 01:26:45;;;;;;;5.03;4.63;;;;;;;24.87;65.36;99520.66;4993580;28;20209;-71
2022/06/28 01:29:12;;;;;;;4.33;4.03;;;;;;;24.85;65.80;99522.88;4992996;28;20256;-71
2022/06/28 01:31:39;;;;;;;4.73;4.00;;;;;;;24.89;65.66;99521.22;4993259;28;20198;-71
2022/06/28 01:34:06;;;;;;;4.80;4.37;;;;;;;24.85;66.01;99522.88;4992789;28;20317;-71
2022/06/28 01:36:33;;;;;;;5.40;4.37;;;;;;;24.74;65.07;99524.06;4992790;28;20638;-71
2022/06/28 01:39:00;;;;;;;4.83;4.43;;;;;;;24.61;65.72;99521.22;4993440;28;20194;-71
2022/06/28 01:41:34;;;;;;;5.10;4.80;;;;;;;24.51;66.39;99519.38;4992892;28;20241;-72
2022/06/28 01:44:03;;;;;;;7.07;4.90;;;;;;;24.45;66.85;99522.41;4992580;28;20651;-72
2022/06/28 01:46:30;;;;;;;5.07;4.60;;;;;;;24.33;67.34;99514.66;4993374;28;20622;-72
2022/06/28 01:48:57;;;;;;;5.60;5.10;;;;;;;24.35;67.90;99517.09;4992796;28;20197;-72
2022/06/28 01:51:24;;;;;;;6.60;4.63;;;;;;;24.54;66.89;99524.22;4993638;28;20199;-72
2022/06/28 01:53:51;;;;;;;12.80;5.00;;;;;;;24.72;66.39;99528.19;4992361;28;20235;-73
2022/06/28 01:56:18;;;;;;;7.43;4.17;;;;;;;24.82;66.19;99525.34;4992454;28;20206;-72
2022/06/28 01:58:46;;;;;;;6.20;4.40;;;;;;;24.91;64.87;99529.06;4992449;28;20634;-72
2022/06/28 02:01:14;;;;;;;7.57;4.80;;;;;;;24.85;65.75;99516.63;4992970;28;20210;-72
2022/06/28 02:03:41;;;;;;;8.67;4.93;;;;;;;24.85;64.23;99536.47;4992652;28;20674;-72
2022/06/28 02:06:08;;;;;;;4.20;4.00;;;;;;;24.56;65.72;99535.63;4992701;28;20220;-72
2022/06/28 02:08:35;;;;;;;4.67;4.27;;;;;;;24.35;65.65;99531.44;4992322;28;20761;-72
2022/06/28 02:11:04;;;;;;;4.60;4.20;;;;;;;24.22;67.46;99523.97;4992632;28;20202;-72
2022/06/28 02:13:30;;;;;;;6.10;4.70;;;;;;;24.23;66.27;99531.03;4992064;28;20744;-73
2022/06/28 02:15:59;;;;;;;5.17;4.40;;;;;;;24.29;67.19;99523.63;4992341;28;20725;-72
2022/06/28 02:18:26;;;;;;;6.57;4.50;;;;;;;24.41;66.88;99527.63;4993009;28;20202;-72
2022/06/28 02:20:52;;;;;;;5.23;4.93;;;;;;;24.50;65.84;99525.91;4992202;28;20256;-72
2022/06/28 02:23:19;;;;;;;4.83;4.43;;;;;;;24.59;65.99;99529.59;4992204;28;20668;-72
2022/06/28 02:25:46;;;;;;;5.73;5.03;;;;;;;24.49;65.24;99529.72;4992615;28;20201;-72
2022/06/28 02:28:13;;;;;;;4.70;4.20;;;;;;;24.46;65.94;99533.00;4992679;28;20201;-72
2022/06/28 02:30:39;;;;;;;5.63;4.60;;;;;;;24.40;66.64;99531.44;4992117;28;20658;-73
2022/06/28 02:33:08;;;;;;;5.07;4.50;;;;;;;24.32;67.21;99534.75;4995040;28;20226;-72
2022/06/28 02:41:02;;;;;;;4.70;4.30;;;;;;;24.33;66.42;99539.09;4996357;28;20642;-73
2022/06/28 02:43:29;;;;;;;5.10;4.57;;;;;;;24.36;66.10;99541.25;4996194;28;20210;-72
2022/06/28 02:45:56;;;;;;;5.23;4.43;;;;;;;24.39;65.40;99540.66;4995895;28;20202;-73
2022/06/28 02:48:24;;;;;;;4.97;4.57;;;;;;;24.35;66.93;99531.44;4995834;28;20665;-73
2022/06/28 02:50:51;;;;;;;5.93;5.03;;;;;;;24.27;65.85;99540.25;4996030;28;20544;-71
2022/06/28 02:53:17;;;;;;;7.57;4.37;;;;;;;24.17;67.59;99531.34;4995695;28;20282;-73
2022/06/28 02:55:44;;;;;;;5.37;4.10;;;;;;;24.03;67.48;99531.19;4996415;28;20197;-73
2022/06/28 02:58:11;;;;;;;5.10;4.63;;;;;;;24.26;67.57;99530.44;4995947;28;20275;-73
2022/06/28 03:00:38;;;;;;;5.60;5.10;;;;;;;24.36;66.10;99535.81;4995286;28;20204;-73
2022/06/28 03:03:04;;;;;;;4.90;4.57;;;;;;;24.32;66.26;99534.75;4996018;28;20216;-73
2022/06/28 03:05:33;;;;;;;7.37;5.37;;;;;;;24.29;65.99;99529.88;4995576;28;20258;-73
2022/06/28 03:07:59;;;;;;;4.93;4.50;;;;;;;24.29;66.13;99532.59;4996541;28;20278;-73
2022/06/28 03:10:26;;;;;;;6.07;4.33;;;;;;;24.31;67.11;99529.59;4995491;28;20202;-73
2022/06/28 03:12:53;;;;;;;4.90;4.33;;;;;;;24.27;65.87;99542.94;4995595;28;20803;-73
2022/06/28 03:15:20;;;;;;;4.67;4.10;;;;;;;24.25;66.08;99534.25;4996183;28;20693;-73
2022/06/28 03:17:46;;;;;;;5.30;4.80;;;;;;;24.21;66.06;99533.22;4995591;28;20197;-75
2022/06/28 03:20:13;;;;;;;5.03;4.53;;;;;;;24.32;66.40;99542.91;4994932;28;20766;-74
2022/06/28 03:22:41;;;;;;;7.40;4.43;;;;;;;24.33;66.11;99535.56;4995453;28;20202;-74
2022/06/28 03:25:09;;;;;;;4.60;4.30;;;;;;;24.35;66.55;99536.88;4994777;28;20198;-74
2022/06/28 03:27:35;;;;;;;5.10;4.60;;;;;;;24.41;66.67;99541.19;4994955;28;20260;-74
2022/06/28 03:30:03;;;;;;;4.60;4.30;;;;;;;24.34;65.97;99537.97;4994826;28;20665;-73
2022/06/28 03:32:30;;;;;;;27.33;6.00;;;;;;;24.30;66.90;99528.78;4994852;28;20202;-73
2022/06/28 03:34:57;;;;;;;4.17;3.90;;;;;;;24.24;66.02;99531.81;4994584;28;20229;-73
2022/06/28 03:37:23;;;;;;;7.60;4.20;;;;;;;24.09;67.29;99535.47;4994723;28;20633;-74
2022/06/28 03:39:52;;;;;;;4.57;4.37;;;;;;;24.00;67.30;99537.16;4995022;28;20250;-74
2022/06/28 03:42:18;;;;;;;5.03;4.30;;;;;;;23.99;68.05;99524.69;4994954;28;20256;-73
2022/06/28 03:44:45;;;;;;;5.27;4.40;;;;;;;23.97;67.41;99518.72;4994549;28;20198;-73
2022/06/28 03:47:12;;;;;;;10.10;4.40;;;;;;;24.04;66.81;99524.66;4995117;28;20240;-73
2022/06/28 03:49:39;;;;;;;5.10;4.57;;;;;;;24.06;67.01;99530.59;4994540;28;20615;-72
2022/06/28 03:52:06;;;;;;;4.57;4.27;;;;;;;24.15;67.20;99534.34;4994242;28;20198;-72
2022/06/28 03:54:33;;;;;;;4.67;4.27;;;;;;;24.32;66.23;99531.22;4994572;28;20225;-72
2022/06/28 03:57:01;;;;;;;5.40;3.70;;;;;;;24.45;66.56;99539.53;4994481;28;20198;-72
2022/06/28 03:59:28;;;;;;;5.23;3.87;;;;;;;24.75;65.32;99527.59;4994635;28;20204;-72
2022/06/28 04:01:54;;;;;;;3.70;3.50;;;;;;;24.92;65.09;99541.56;4994451;28;20202;-72
2022/06/28 04:04:21;;;;;;;7.07;3.93;;;;;;;25.08;63.41;99543.81;4994115;28;20733;-73
2022/06/28 04:06:48;;;;;;;3.67;3.47;;;;;;;25.15;63.90;99548.09;4994349;28;20202;-73
2022/06/28 04:09:15;;;;;;;8.93;4.00;;;;;;;25.31;62.95;99536.78;4994806;28;20205;-73
2022/06/28 04:11:41;;;;;;;4.33;3.93;;;;;;;25.46;62.64;99539.31;4994326;28;20194;-73
2022/06/28 04:14:13;;;;;;;5.43;4.20;;;;;;;25.48;62.32;99517.25;4994363;28;20588;-73
2022/06/28 04:16:40;;;;;;;8.70;4.70;;;;;;;25.46;61.68;99538.50;4995068;28;20230;-73
2022/06/28 04:19:08;;;;;;;10.00;4.77;;;;;;;25.54;61.92;99537.84;4994221;28;20600;-73
2022/06/28 04:21:34;;;;;;;6.30;4.00;;;;;;;25.62;61.75;99537.19;4993961;28;20202;-74
2022/06/28 04:24:01;;;;;;;7.20;4.23;;;;;;;25.70;61.49;99545.53;4993624;28;20202;-73
2022/06/28 04:26:28;;;;;;;6.10;4.20;;;;;;;25.46;61.80;99544.75;4994149;28;20199;-73
2022/06/28 04:28:55;;;;;;;7.20;6.53;;;;;;;25.31;62.52;99546.88;4993853;28;20202;-73
2022/06/28 04:31:23;;;;;;;4.30;3.90;;;;;;;25.03;64.61;99543.88;4994237;28;20609;-70
2022/06/28 04:33:49;;;;;;;5.73;4.33;;;;;;;24.98;64.87;99539.59;4993271;28;20657;-71
2022/06/28 04:36:16;;;;;;;7.13;4.83;;;;;;;24.85;65.03;99533.75;4993261;28;20194;-73
2022/06/28 04:38:43;;;;;;;23.10;5.20;;;;;;;24.75;64.74;99543.91;4993623;28;20260;-73
2022/06/28 04:41:10;;;;;;;11.37;5.20;;;;;;;24.70;65.53;99544.75;4993542;28;20193;-72
2022/06/28 04:43:36;;;;;;;14.90;5.90;;;;;;;24.84;64.96;99551.13;4993530;28;20202;-72
2022/06/28 04:46:03;;;;;;;6.73;5.40;;;;;;;25.00;64.66;99552.59;4993973;28;20269;-72
2022/06/28 04:48:31;;;;;;;5.33;4.80;;;;;;;25.40;64.24;99561.44;4993161;28;20743;-73
2022/06/28 04:51:10;;;;;;;5.93;3.97;;;;;;;25.54;63.41;99557.72;4993142;28;20670;-73
2022/06/28 04:53:38;;;;;;;5.77;4.47;;;;;;;25.74;62.79;99559.34;4993024;28;20732;-73
2022/06/28 04:56:05;;;;;;;12.03;4.67;;;;;;;26.09;61.86;99569.78;4992885;28;20198;-73
2022/06/28 04:58:31;;;;;;;9.57;4.93;;;;;;;26.12;61.97;99569.16;4993337;28;20201;-71
2022/06/28 05:00:58;;;;;;;8.33;5.37;;;;;;;26.23;61.31;99570.63;4993329;28;20195;-74
2022/06/28 05:03:25;;;;;;;10.90;5.17;;;;;;;26.31;61.51;99578.97;4993420;28;20194;-73
2022/06/28 05:05:53;;;;;;;5.70;4.60;;;;;;;26.44;60.83;99569.22;4993292;28;20261;-73
2022/06/28 05:08:20;;;;;;;20.37;6.83;;;;;;;26.60;61.11;99581.50;4992901;28;20281;-73
2022/06/28 05:10:47;;;;;;;9.33;5.17;;;;;;;26.73;60.44;99578.81;4992958;28;20191;-71
2022/06/28 05:13:14;;;;;;;8.20;4.77;;;;;;;26.91;60.60;99588.84;4993171;28;20264;-72
2022/06/28 05:15:40;;;;;;;6.97;4.30;;;;;;;27.17;58.05;99590.03;4992948;28;20245;-72
2022/06/28 05:18:08;;;;;;;4.13;3.77;;;;;;;27.52;57.09;99589.34;4993076;28;20253;-72
2022/06/28 05:20:34;;;;;;;4.87;3.90;;;;;;;28.55;54.04;99600.16;4993105;28;20636;-72
2022/06/28 05:23:02;;;;;;;12.40;4.97;;;;;;;29.75;51.02;99598.88;4992996;28;20207;-74
2022/06/28 05:25:29;;;;;;;4.83;4.37;;;;;;;30.18;49.57;99591.56;4993121;28;20199;-73
2022/06/28 05:27:56;;;;;;;12.00;4.27;;;;;;;30.60;47.84;99607.19;4993046;28;20198;-72
2022/06/28 05:30:23;;;;;;;6.93;4.23;;;;;;;30.69;47.38;99602.50;4992733;28;20202;-73
2022/06/28 05:32:49;;;;;;;7.47;4.20;;;;;;;30.63;47.82;99612.03;4988714;28;20210;-73
2022/06/28 05:35:16;;;;;;;8.47;4.70;;;;;;;30.71;47.66;99605.75;4987366;28;20266;-74
2022/06/28 05:37:43;;;;;;;6.57;4.33;;;;;;;31.22;46.44;99613.84;4976372;28;20741;-73
2022/06/28 05:40:12;;;;;;;8.10;3.73;;;;;;;31.55;45.15;99617.59;4974567;28;20199;-73
2022/06/28 05:42:39;;;;;;;4.63;3.73;;;;;;;31.85;44.40;99618.44;4992695;28;20265;-73
2022/06/28 05:45:06;;;;;;;8.83;4.10;;;;;;;32.57;41.96;99618.88;4992479;28;20289;-77
2022/06/28 05:47:33;;;;;;;9.03;3.70;;;;;;;33.49;40.13;99622.97;4972603;28;20687;-73
2022/06/28 05:50:00;;;;;;;4.60;3.80;;;;;;;33.94;38.65;99612.63;4985085;28;20199;-72
2022/06/28 05:52:27;;;;;;;19.10;4.57;;;;;;;34.33;37.62;99614.66;4992328;28;20195;-73
2022/06/28 05:54:53;;;;;;;10.97;3.57;;;;;;;34.12;37.73;99608.50;4992703;28;20222;-71
2022/06/28 05:57:21;;;;;;;7.57;3.83;;;;;;;34.40;37.97;99614.84;4991735;28;20195;-72
2022/06/28 05:59:48;;;;;;;4.18;3.45;;;;;;;34.59;37.08;99610.31;4992412;28;20643;-72
2022/06/28 06:02:15;;;;;;;3.67;3.30;;;;;;;34.75;36.80;99604.81;4992542;28;20198;-68
2022/06/28 06:04:41;;;;;;;9.13;3.67;;;;;;;35.10;36.42;99608.56;4992613;28;20750;-67
2022/06/28 06:07:08;;;;;;;4.55;4.13;;;;;;;35.09;36.53;99605.00;4994070;28;20194;-67
2022/06/28 06:09:36;;;;;;;7.93;4.10;;;;;;;35.41;36.25;99597.56;4997155;28;20202;-67
2022/06/28 06:12:04;;;;;;;6.03;3.67;;;;;;;35.36;36.39;99592.31;4993482;28;20293;-68
2022/06/28 06:14:32;;;;;;;4.30;3.70;;;;;;;35.78;35.13;99593.34;4996336;28;20234;-67
2022/06/28 06:16:58;;;;;;;6.97;3.25;;;;;;;35.79;35.74;99600.47;4995841;28;20737;-67
2022/06/28 06:19:25;;;;;;;8.13;3.47;;;;;;;35.80;33.98;99602.09;4983633;28;20210;-67
2022/06/28 06:21:52;;;;;;;5.30;3.65;;;;;;;35.55;35.62;99595.94;4980577;28;20249;-68
2022/06/28 06:24:19;;;;;;;11.95;3.08;;;;;;;35.67;35.31;99603.31;4987221;28;20261;-68
2022/06/28 06:26:46;;;;;;;10.15;3.55;;;;;;;35.64;34.72;99593.00;4995571;28;20666;-75
2022/06/28 06:29:13;;;;;;;4.85;3.53;;;;;;;35.71;34.52;99599.50;4982998;28;20207;-79
2022/06/28 06:31:41;;;;;;;10.25;3.47;;;;;;;35.68;34.05;99602.19;4994551;28;20282;-72
2022/06/28 06:34:07;;;;;;;6.15;3.10;;;;;;;35.78;33.09;99612.69;4995662;28;20705;-73
2022/06/28 06:36:35;;;;;;;6.35;3.17;;;;;;;35.57;33.24;99604.69;4995834;28;20195;-73
2022/06/28 06:39:02;;;;;;;12.32;3.58;;;;;;;35.37;33.39;99604.94;4995359;28;20229;-73
2022/06/28 06:41:28;;;;;;;15.23;3.90;;;;;;;35.59;33.86;99598.78;4995942;28;20199;-73
2022/06/28 06:43:55;;;;;;;7.03;3.03;;;;;;;35.65;33.01;99613.94;4995910;28;20269;-72
2022/06/28 06:46:22;;;;;;;5.75;3.05;;;;;;;35.66;33.91;99612.78;4995907;28;20198;-72
2022/06/28 06:48:50;;;;;;;3.28;3.00;;;;;;;35.71;33.29;99596.72;4995472;28;20667;-72
2022/06/28 06:51:17;;;;;;;6.30;2.80;;;;;;;35.73;32.62;99596.38;4995975;28;20280;-73
2022/06/28 06:53:44;;;;;;;5.55;3.10;;;;;;;35.55;33.48;99601.47;4995523;28;20199;-74
2022/06/28 06:56:11;;;;;;;4.25;2.65;;;;;;;35.72;33.75;99594.78;4995854;28;20191;-73
2022/06/28 06:58:38;;;;;;;4.57;2.72;;;;;;;35.71;33.41;99604.19;4995522;28;20265;-73
2022/06/28 07:01:05;;;;;;;4.57;2.67;;;;;;;35.75;33.03;99597.63;4995236;28;20622;-72
2022/06/28 07:03:32;;;;;;;8.02;3.25;;;;;;;35.64;33.07;99609.59;4995068;28;20574;-73
2022/06/28 07:06:00;;;;;;;11.65;3.38;;;;;;;35.86;33.05;99608.94;4995250;28;20663;-73
2022/06/28 07:08:26;;;;;;;3.63;2.80;;;;;;;35.72;32.72;99603.06;4995410;28;20265;-73
2022/06/28 07:10:53;;;;;;;6.18;3.38;;;;;;;35.51;33.30;99597.00;4995548;28;20209;-71
2022/06/28 07:13:20;;;;;;;5.38;3.70;;;;;;;35.40;33.39;99599.50;4994678;28;20195;-74
2022/06/28 07:15:48;;;;;;;3.33;2.90;;;;;;;35.26;33.80;99593.59;4985832;28;20212;-73
2022/06/28 07:18:15;;;;;;;3.50;3.10;;;;;;;35.37;33.66;99586.44;4983735;28;20203;-69
2022/06/28 07:20:42;;;;;;;4.80;3.20;;;;;;;35.60;33.12;99581.84;4985984;28;20249;-69
2022/06/28 07:23:10;;;;;;;11.02;3.20;;;;;;;35.78;33.38;99580.34;4992741;28;20678;-69
2022/06/28 07:25:36;;;;;;;6.43;3.30;;;;;;;36.14;32.73;99573.63;4994988;28;20230;-69
2022/06/28 07:28:04;;;;;;;11.68;3.70;;;;;;;36.39;32.96;99584.06;4995234;28;20702;-69
2022/06/28 07:30:30;;;;;;;4.72;2.85;;;;;;;36.06;31.63;99582.94;4994516;28;20206;-69
2022/06/28 07:32:57;;;;;;;4.60;3.22;;;;;;;36.17;32.18;99578.44;4994781;28;20672;-69
2022/06/28 07:35:24;;;;;;;5.93;3.03;;;;;;;35.95;33.06;99573.59;4994859;28;20272;-69
2022/06/28 07:37:52;;;;;;;8.20;3.60;;;;;;;35.64;32.70;99570.88;4994793;28;20194;-69
2022/06/28 07:40:20;;;;;;;5.15;3.17;;;;;;;35.54;32.90;99576.94;4989327;28;20196;-67
2022/06/28 07:42:47;;;;;;;3.13;2.97;;;;;;;35.61;33.55;99577.94;4975056;28;20675;-69
2022/06/28 07:45:14;;;;;;;19.73;3.83;;;;;;;35.36;33.56;99570.97;4975015;28;20649;-69
2022/06/28 07:47:42;;;;;;;3.70;3.33;;;;;;;35.51;33.34;99569.34;4975345;28;20278;-69
2022/06/28 07:52:53;;;;;;;4.55;3.20;;;;;;;35.69;32.77;99573.34;4982510;28;20601;-67
2022/06/28 07:55:21;;;;;;;6.57;3.42;;;;;;;35.74;33.33;99576.66;4978555;28;20219;-68
2022/06/28 07:57:48;;;;;;;4.72;2.85;;;;;;;35.76;33.11;99568.03;4994069;28;20198;-67
2022/06/28 08:00:19;;;;;;;4.05;3.00;;;;;;;35.90;30.83;99574.69;4994394;28;20198;-69
2022/06/28 08:02:46;;;;;;;21.08;3.72;;;;;;;36.01;30.80;99574.91;4994257;28;20191;-67
2022/06/28 08:05:13;;;;;;;9.88;3.00;;;;;;;36.13;30.54;99578.34;4994300;28;20627;-67
2022/06/28 08:07:40;;;;;;;6.40;3.63;;;;;;;36.32;30.93;99580.34;4994381;28;20265;-67
2022/06/28 08:10:08;;;;;;;3.30;3.10;;;;;;;36.33;31.33;99576.41;4993880;28;20257;-68
2022/06/28 08:12:36;;;;;;;67.38;7.45;;;;;;;36.26;31.09;99579.81;4994505;28;20198;-68
2022/06/28 08:15:04;;;;;;;2.88;2.67;;;;;;;36.41;29.45;99584.50;4994553;28;20301;-68
2022/06/28 08:17:31;;;;;;;2.83;2.55;;;;;;;36.64;30.20;99581.78;4994394;28;20216;-69
2022/06/28 08:19:58;;;;;;;3.97;2.65;;;;;;;36.87;29.58;99579.91;4993711;28;20194;-69
2022/06/28 08:22:25;;;;;;;5.25;2.95;;;;;;;37.01;30.25;99582.91;4993750;28;20197;-68
2022/06/28 08:24:51;;;;;;;3.53;3.00;;;;;;;36.90;29.88;99574.41;4993598;28;20249;-68
2022/06/28 08:27:18;;;;;;;5.50;2.83;;;;;;;36.94;30.03;99580.00;4993771;28;20663;-68
2022/06/28 08:29:47;;;;;;;3.85;3.55;;;;;;;36.58;29.18;99570.22;4992911;28;20260;-68
2022/06/28 08:32:16;;;;;;;3.10;2.78;;;;;;;36.50;30.96;99573.22;4994388;28;20191;-68
2022/06/28 08:34:42;;;;;;;4.15;3.55;;;;;;;36.28;30.13;99568.41;4993867;28;20248;-69
2022/06/28 08:37:09;;;;;;;5.32;3.28;;;;;;;35.91;30.04;99572.69;4993414;28;20195;-69
2022/06/28 08:39:36;;;;;;;7.40;3.63;;;;;;;36.07;29.97;99562.38;4993111;28;20191;-69
2022/06/28 08:42:05;;;;;;;16.30;3.50;;;;;;;36.31;30.47;99573.22;4974071;28;20668;-69
2022/06/28 08:44:34;;;;;;;4.82;4.30;;;;;;;36.41;30.29;99561.53;4973982;28;20191;-69
2022/06/28 08:47:03;;;;;;;5.05;3.33;;;;;;;36.13;30.58;99566.50;4974176;28;20250;-69
2022/06/28 08:49:36;;;;;;;2.80;2.60;;;;;;;35.86;30.33;99561.94;4973790;28;20195;-69
2022/06/28 08:52:04;;;;;;;3.58;2.90;;;;;;;36.04;30.72;99563.09;4973858;28;20656;-69
2022/06/28 08:54:31;;;;;;;3.42;2.50;;;;;;;36.21;29.13;99565.47;4973957;28;20242;-69
2022/06/28 08:57:00;;;;;;;3.08;2.78;;;;;;;36.35;29.21;99563.03;4973920;28;20191;-69
2022/06/28 08:59:27;;;;;;;3.30;3.05;;;;;;;36.42;29.06;99558.41;4974680;28;20213;-69
2022/06/28 09:01:54;;;;;;;3.00;2.72;;;;;;;36.50;28.73;99559.38;4973964;28;20199;-69
2022/06/28 09:04:22;;;;;;;3.97;3.10;;;;;;;36.16;28.69;99565.75;4973323;28;20195;-70
2022/06/28 09:06:49;;;;;;;4.15;3.22;;;;;;;36.17;28.99;99570.13;4973807;28;20281;-69
2022/06/28 09:09:17;;;;;;;7.28;3.10;;;;;;;36.28;28.85;99565.63;4972782;28;20199;-68
2022/06/28 09:11:45;;;;;;;2.80;2.60;;;;;;;35.80;29.47;99566.16;4973857;28;20191;-69
2022/06/28 09:14:23;;;;;;;3.17;2.67;;;;;;;36.13;28.81;99566.50;4973623;28;20273;-69
2022/06/28 09:16:51;;;;;;;3.58;2.92;;;;;;;36.53;27.64;99564.97;4973389;28;20229;-69
2022/06/28 09:19:18;;;;;;;2.88;2.58;;;;;;;36.85;26.94;99566.41;4973583;28;20199;-68
2022/06/28 09:21:46;;;;;;;4.88;2.63;;;;;;;36.87;27.91;99554.97;4974775;28;20203;-69
2022/06/28 09:24:25;;;;;;;2.90;2.58;;;;;;;36.96;27.87;99559.06;4992554;28;20663;-68
2022/06/28 09:26:54;;;;;;;3.42;3.10;;;;;;;37.23;27.90;99565.50;4992694;28;20750;-68
2022/06/28 09:29:21;;;;;;;4.53;2.90;;;;;;;37.36;27.65;99566.94;4992337;28;20628;-68
2022/06/28 09:31:47;;;;;;;4.38;2.67;;;;;;;37.35;27.34;99567.31;4992422;28;20198;-68
2022/06/28 09:34:14;;;;;;;3.75;3.45;;;;;;;37.07;29.15;99573.94;4992802;28;20205;-68
2022/06/28 09:36:55;;;;;;;2.92;2.72;;;;;;;36.97;28.69;99557.13;4992854;28;20261;-68
2022/06/28 09:39:26;;;;;;;6.22;3.30;;;;;;;36.98;28.62;99575.34;4993636;28;20205;-68
2022/06/28 09:41:55;;;;;;;2.80;2.60;;;;;;;36.98;29.25;99559.53;4974897;28;20306;-68
2022/06/28 09:44:25;;;;;;;2.88;2.67;;;;;;;36.79;28.91;99564.31;4973622;28;20199;-68
2022/06/28 09:46:54;;;;;;;5.05;2.92;;;;;;;36.97;28.45;99566.25;4972925;28;20250;-68
2022/06/28 09:49:27;;;;;;;4.68;2.90;;;;;;;36.81;29.30;99548.94;4973242;28;20279;-69
2022/06/28 09:51:56;;;;;;;4.32;2.20;;;;;;;36.13;29.38;99558.19;4972994;28;20655;-69
2022/06/28 09:54:26;;;;;;;2.40;2.30;;;;;;;35.99;29.87;99563.41;4973112;28;20693;-69
2022/06/28 09:56:55;;;;;;;3.55;2.20;;;;;;;35.87;29.62;99555.22;4973059;28;20269;-69
2022/06/28 09:59:24;;;;;;;2.97;2.50;;;;;;;35.74;29.77;99537.13;4973028;28;20195;-69
2022/06/28 10:01:52;;;;;;;3.90;2.90;;;;;;;35.52;30.76;99551.63;4973358;28;20246;-69
2022/06/28 10:04:19;;;;;;;4.25;2.92;;;;;;;35.57;31.29;99541.13;4972654;28;20195;-69
2022/06/28 10:06:46;;;;;;;4.47;2.83;;;;;;;35.64;31.05;99557.06;4972831;28;20210;-68
2022/06/28 10:09:15;;;;;;;5.05;2.58;;;;;;;35.62;31.14;99559.38;4973236;28;20191;-68
2022/06/28 10:17:36;;;;;;;3.05;2.83;;;;;;;35.25;30.99;99544.22;4973213;28;20265;-67
2022/06/28 10:20:05;;;;;;;7.38;2.78;;;;;;;35.16;32.09;99549.94;4973277;28;20215;-66
2022/06/28 10:22:32;;;;;;;3.45;2.58;;;;;;;34.98;31.37;99537.63;4980907;28;20207;-70
2022/06/28 10:25:02;;;;;;;2.45;2.35;;;;;;;34.66;31.96;99535.19;4992096;28;20198;-67
2022/06/28 10:27:30;;;;;;;3.55;3.10;;;;;;;34.18;33.18;99540.88;4992050;28;20257;-70
2022/06/28 10:30:22;;;;;;;6.95;2.60;;;;;;;33.82;34.13;99535.47;4992098;28;20190;-70
2022/06/28 10:32:51;;;;;;;2.63;2.45;;;;;;;33.34;34.06;99539.06;4992319;28;20616;-69
2022/06/28 10:35:53;;;;;;;2.95;2.63;;;;;;;33.26;34.08;99532.50;4992031;28;20281;-68
2022/06/28 10:38:20;;;;;;;3.75;2.72;;;;;;;32.71;35.12;99521.13;4992354;28;20197;-65
2022/06/28 10:40:49;;;;;;;3.75;2.80;;;;;;;32.86;35.24;99517.75;4982883;28;20210;-66
2022/06/28 10:43:17;;;;;;;2.60;2.40;;;;;;;33.17;34.10;99519.97;4972956;28;20303;-68
2022/06/28 10:46:07;;;;;;;6.82;2.60;;;;;;;33.46;34.90;99518.94;4972800;28;20231;-68
2022/06/28 10:49:01;;;;;;;3.73;2.80;;;;;;;33.06;35.56;99516.88;4972937;28;20192;-68
2022/06/28 10:51:28;;;;;;;3.47;3.00;;;;;;;33.65;34.24;99517.22;4972700;28;20203;-68
2022/06/28 10:54:06;;;;;;;3.08;2.97;;;;;;;34.13;34.46;99510.81;4975262;28;20274;-68
2022/06/28 10:56:40;;;;;;;5.88;2.80;;;;;;;34.10;33.90;99511.50;4975812;28;20213;-68
2022/06/28 10:59:09;;;;;;;3.63;2.78;;;;;;;34.56;33.90;99508.91;4976373;28;20198;-69
2022/06/28 11:01:57;;;;;;;3.45;2.47;;;;;;;34.68;32.63;99500.53;4975624;28;20211;-68
2022/06/28 11:04:30;;;;;;;2.42;2.20;;;;;;;34.61;31.39;99516.91;4975618;28;20656;-68
2022/06/28 11:07:00;;;;;;;6.07;2.65;;;;;;;35.01;31.17;99511.25;4975986;28;20652;-68
2022/06/28 11:09:54;;;;;;;3.65;2.15;;;;;;;35.11;31.20;99514.28;4995042;28;20253;-68
2022/06/28 11:12:36;;;;;;;3.80;2.83;;;;;;;35.32;30.89;99503.00;4988006;28;20233;-68
2022/06/28 11:15:04;;;;;;;2.72;2.50;;;;;;;35.12;31.05;99504.88;4995394;28;20277;-68
2022/06/28 11:17:32;;;;;;;3.60;2.33;;;;;;;34.86;31.49;99493.53;4994190;28;20211;-68
2022/06/28 11:20:02;;;;;;;4.07;2.75;;;;;;;34.11;33.12;99499.28;4995033;28;20642;-68
2022/06/28 11:22:31;;;;;;;2.88;2.78;;;;;;;33.91;33.25;99500.28;4987779;28;20195;-69
2022/06/28 11:25:01;;;;;;;3.67;2.50;;;;;;;33.42;34.31;99496.00;4979892;28;20207;-67
2022/06/28 11:27:28;;;;;;;2.70;2.50;;;;;;;33.83;33.61;99495.72;4994410;28;20266;-67
2022/06/28 11:30:06;;;;;;;3.53;2.70;;;;;;;33.80;34.11;99490.88;4994465;28;20191;-71
2022/06/28 11:32:35;;;;;;;3.35;3.00;;;;;;;34.09;33.85;99493.34;4994722;28;20198;-71
2022/06/28 11:35:05;;;;;;;4.05;2.90;;;;;;;33.78;33.86;99498.69;4994742;28;20210;-69
2022/06/28 11:37:34;;;;;;;8.90;2.75;;;;;;;33.91;33.47;99481.00;4994342;28;20277;-70
2022/06/28 11:40:03;;;;;;;3.92;2.50;;;;;;;34.19;33.65;99479.84;4991998;28;20249;-70
2022/06/28 11:42:31;;;;;;;2.50;2.40;;;;;;;34.45;33.01;99490.47;4975256;28;20289;-70
2022/06/28 11:44:58;;;;;;;3.00;2.70;;;;;;;34.55;33.50;99476.94;4975413;28;20254;-69
2022/06/28 11:47:25;;;;;;;3.85;2.58;;;;;;;34.30;33.84;99477.38;4974882;28;20199;-68
2022/06/28 11:50:07;;;;;;;3.13;2.75;;;;;;;34.00;34.35;99473.41;4975395;28;20200;-69
2022/06/28 11:52:35;;;;;;;2.70;2.50;;;;;;;34.18;34.84;99480.19;4974435;28;20660;-69